Granite Springs, New York
Current Conditions -  °F | °C
As of 6:53 AM on Friday 28 Nov 2014 (Local Time) from KDXR Reporting Station
Clear Clear  
Wind Chill: 25°   Ceiling: Unl
Heat Index: 25°   Visibility: 10mi
Dew Point: 19°   Wind: 3mph
Humidity: 78%   Direction: 270°W
Pressure: 30.11"   Gusts: NA
Location:  41.31°N, 73.76°W
Report Text: KDXR 281153Z 27003KT 10SM CLR M04/M07 A3011 RMK AO2 SLP200 T10391072 11017 21044 53018
Loading
Personal Weather Stations






























Interactive Weather Map New forecast layout! Learn more

10-Day Weather Forecast

Advertisements
Track Severe Weather on mobile